createdAt,value
2023-03-26T00:00:54.354Z,0.70
2023-03-26T00:03:57.999Z,0.65
2023-03-26T00:07:00.674Z,1.20
2023-03-26T00:10:03.779Z,1.00
2023-03-26T00:13:07.378Z,0.77
2023-03-26T00:16:12.271Z,0.70
2023-03-26T00:19:14.362Z,0.95
2023-03-26T00:22:17.183Z,0.63
2023-03-26T00:25:20.562Z,0.70
2023-03-26T00:28:23.329Z,0.47
2023-03-26T00:31:27.319Z,0.93
2023-03-26T00:34:32.073Z,0.68
2023-03-26T00:37:34.088Z,1.00
2023-03-26T00:40:36.896Z,0.50
2023-03-26T00:43:39.354Z,0.70
2023-03-26T00:46:42.886Z,0.85
2023-03-26T00:49:46.971Z,0.68
2023-03-26T00:52:48.944Z,1.65
2023-03-26T00:55:50.912Z,0.85
2023-03-26T00:58:52.996Z,0.70
2023-03-26T01:01:58.511Z,0.80
2023-03-26T01:05:04.061Z,0.80
2023-03-26T01:08:18.404Z,0.57
2023-03-26T01:11:23.952Z,0.70
2023-03-26T01:14:29.084Z,0.73
2023-03-26T01:17:38.086Z,0.65
2023-03-26T01:20:46.767Z,0.73
2023-03-26T01:23:57.786Z,0.60
2023-03-26T01:27:14.424Z,0.63
2023-03-26T01:30:24.533Z,0.75
2023-03-26T01:33:36.722Z,0.47
2023-03-26T01:36:46.918Z,0.75
2023-03-26T01:39:57.116Z,0.80
2023-03-26T01:43:08.882Z,0.80
2023-03-26T01:46:14.311Z,0.63
2023-03-26T01:49:18.618Z,0.80
2023-03-26T01:52:25.326Z,0.60
2023-03-26T01:55:38.334Z,0.70
2023-03-26T01:58:55.386Z,0.57
2023-03-26T02:02:04.941Z,0.70
2023-03-26T02:05:15.948Z,0.98
2023-03-26T02:08:23.653Z,0.68
2023-03-26T02:11:35.550Z,0.63
2023-03-26T02:14:38.066Z,0.70
2023-03-26T02:17:40.611Z,0.75
2023-03-26T02:20:42.718Z,0.70
2023-03-26T02:23:48.788Z,0.82
2023-03-26T02:26:52.380Z,0.70
2023-03-26T02:29:54.368Z,0.82
2023-03-26T02:32:59.543Z,0.65
2023-03-26T02:36:04.412Z,0.82
2023-03-26T02:39:06.422Z,0.70
2023-03-26T02:42:09.900Z,0.60
2023-03-26T02:45:11.847Z,0.75
2023-03-26T02:48:15.193Z,0.77
2023-03-26T02:51:18.372Z,0.65
2023-03-26T02:54:20.577Z,0.55
2023-03-26T02:57:24.228Z,0.82
2023-03-26T03:00:26.424Z,0.70
2023-03-26T03:03:30.237Z,0.77
2023-03-26T03:06:32.577Z,0.75
2023-03-26T03:09:34.881Z,1.10
2023-03-26T03:12:38.244Z,1.02
2023-03-26T03:15:40.181Z,0.63
2023-03-26T03:18:42.158Z,0.98
2023-03-26T03:21:44.174Z,0.70
2023-03-26T03:24:46.161Z,0.98
2023-03-26T03:27:50.419Z,1.40
2023-03-26T03:30:57.733Z,1.25
2023-03-26T03:33:59.694Z,1.83
2023-03-26T03:37:01.651Z,1.40
2023-03-26T03:40:07.822Z,1.30
2023-03-26T03:43:11.270Z,1.52
2023-03-26T03:46:13.523Z,1.17
2023-03-26T03:49:15.730Z,0.85
2023-03-26T03:52:18.312Z,1.10
2023-03-26T03:55:20.243Z,0.95
2023-03-26T03:58:25.060Z,1.35
2023-03-26T04:01:27.067Z,0.90
2023-03-26T04:04:29.078Z,0.70
2023-03-26T04:07:32.374Z,0.60
2023-03-26T04:10:34.356Z,1.15
2023-03-26T04:13:37.772Z,0.70
2023-03-26T04:16:39.728Z,0.82
2023-03-26T04:19:44.167Z,0.60
2023-03-26T04:22:46.846Z,1.00
2023-03-26T04:25:53.877Z,0.63
2023-03-26T04:29:01.092Z,0.80
2023-03-26T04:32:06.844Z,0.80
2023-03-26T04:35:13.163Z,0.90
2023-03-26T04:38:18.454Z,0.70
2023-03-26T04:41:22.375Z,0.80
2023-03-26T04:44:25.742Z,0.90
2023-03-26T04:47:29.179Z,0.95
2023-03-26T04:50:31.197Z,1.23
2023-03-26T04:53:34.331Z,0.75
2023-03-26T04:56:47.565Z,1.30
2023-03-26T04:59:51.547Z,0.75
2023-03-26T05:02:58.306Z,0.82
2023-03-26T05:06:01.588Z,0.90
2023-03-26T05:09:04.048Z,1.05
2023-03-26T05:12:06.325Z,0.88
2023-03-26T05:15:12.156Z,0.70
2023-03-26T05:18:14.414Z,0.70
2023-03-26T05:21:16.399Z,0.80
2023-03-26T05:24:19.787Z,0.57
2023-03-26T05:27:21.683Z,0.98
2023-03-26T05:30:25.587Z,1.13
2023-03-26T05:33:27.590Z,0.95
2023-03-26T05:36:30.639Z,0.80
2023-03-26T05:39:32.677Z,0.63
2023-03-26T05:42:34.618Z,0.88
2023-03-26T05:45:37.995Z,1.10
2023-03-26T05:48:40.431Z,0.77
2023-03-26T05:51:42.510Z,0.85
2023-03-26T05:54:44.585Z,0.70
2023-03-26T05:57:46.555Z,0.90
2023-03-26T06:00:58.535Z,0.90
2023-03-26T06:04:03.004Z,0.70
2023-03-26T06:07:05.091Z,0.93
2023-03-26T06:10:08.173Z,0.88
2023-03-26T06:13:10.477Z,0.98
2023-03-26T06:16:26.302Z,0.70
2023-03-26T06:19:30.254Z,0.82
2023-03-26T06:22:32.218Z,0.85
2023-03-26T06:25:34.190Z,1.00
2023-03-26T06:28:36.717Z,0.80
2023-03-26T06:31:40.684Z,1.10
2023-03-26T06:34:42.711Z,1.23
2023-03-26T06:37:44.821Z,1.30
2023-03-26T06:40:46.796Z,1.95
2023-03-26T06:43:48.742Z,1.30
2023-03-26T06:46:52.160Z,1.17
2023-03-26T06:49:54.135Z,1.17
2023-03-26T06:52:56.640Z,1.00
2023-03-26T06:55:58.565Z,1.10
2023-03-26T06:59:00.749Z,0.90
2023-03-26T07:02:04.385Z,1.35
2023-03-26T07:05:07.034Z,1.27
2023-03-26T07:08:09.062Z,1.70
2023-03-26T07:11:11.275Z,1.50
2023-03-26T07:14:17.734Z,1.30
2023-03-26T07:17:21.427Z,1.13
2023-03-26T07:20:24.333Z,1.75
2023-03-26T07:23:27.037Z,1.50
2023-03-26T07:26:38.690Z,0.93
2023-03-26T07:30:08.617Z,0.90
2023-03-26T07:33:18.906Z,1.15
2023-03-26T07:36:28.057Z,1.33
2023-03-26T07:39:43.104Z,1.65
2023-03-26T07:42:56.430Z,0.98
2023-03-26T07:45:59.141Z,0.75
2023-03-26T07:49:04.699Z,0.85
2023-03-26T07:55:14.041Z,0.90
2023-03-26T07:58:31.453Z,1.20
2023-03-26T08:01:53.795Z,1.33
2023-03-26T08:05:10.674Z,0.90
2023-03-26T08:08:20.721Z,1.50
2023-03-26T08:11:34.354Z,1.00
2023-03-26T08:14:50.023Z,1.00
2023-03-26T08:17:58.016Z,1.13
2023-03-26T08:21:08.190Z,1.10
2023-03-26T08:24:23.026Z,1.10
2023-03-26T08:27:34.618Z,1.17
2023-03-26T08:30:37.058Z,1.20
2023-03-26T08:33:40.928Z,1.00
2023-03-26T08:36:44.655Z,1.35
2023-03-26T08:39:46.702Z,0.98
2023-03-26T08:43:16.886Z,1.05
2023-03-26T08:47:01.859Z,0.75
2023-03-26T08:50:35.291Z,1.20
2023-03-26T08:54:14.753Z,1.00
2023-03-26T08:57:43.155Z,0.90
2023-03-26T09:01:13.766Z,0.82
2023-03-26T09:04:54.488Z,0.77
2023-03-26T09:08:30.006Z,1.13
2023-03-26T09:12:02.054Z,0.70
2023-03-26T09:15:48.692Z,1.27
2023-03-26T09:19:26.057Z,1.05
2023-03-26T09:22:57.890Z,1.02
2023-03-26T09:26:25.481Z,0.85
2023-03-26T09:30:12.503Z,1.33
2023-03-26T09:33:54.322Z,1.40
2023-03-26T09:37:06.790Z,1.48
2023-03-26T09:40:16.591Z,1.25
2023-03-26T09:43:49.805Z,1.17
2023-03-26T09:47:22.599Z,1.23
2023-03-26T09:50:40.314Z,2.25
2023-03-26T09:53:57.010Z,0.90
2023-03-26T09:57:10.569Z,1.40
2023-03-26T10:00:28.557Z,1.45
2023-03-26T10:03:41.412Z,1.15
2023-03-26T10:06:54.590Z,1.50
2023-03-26T10:10:02.406Z,1.08
2023-03-26T10:13:16.393Z,1.40
2023-03-26T10:16:28.569Z,0.75
2023-03-26T10:19:43.692Z,1.38
2023-03-26T10:22:56.905Z,1.20
2023-03-26T10:26:09.801Z,1.02
2023-03-26T10:29:44.162Z,1.30
2023-03-26T10:32:54.524Z,1.30
2023-03-26T10:36:15.501Z,1.60
2023-03-26T10:39:48.743Z,0.93
2023-03-26T10:43:21.338Z,1.10
2023-03-26T10:46:40.295Z,1.00
2023-03-26T10:50:03.177Z,1.30
2023-03-26T10:53:12.709Z,2.30
2023-03-26T10:56:22.031Z,1.75
2023-03-26T10:59:27.760Z,5.22
2023-03-26T11:02:34.095Z,1.80
2023-03-26T11:05:49.399Z,1.60
2023-03-26T11:09:02.449Z,1.58
2023-03-26T11:12:25.593Z,1.30
2023-03-26T11:15:38.513Z,1.13
2023-03-26T11:18:48.015Z,1.17
2023-03-26T11:21:57.654Z,1.05
2023-03-26T11:25:34.347Z,1.13
2023-03-26T11:29:03.215Z,1.25
2023-03-26T11:35:39.758Z,1.75
2023-03-26T11:38:47.009Z,1.95
2023-03-26T11:41:54.794Z,1.25
2023-03-26T11:45:04.101Z,1.95
2023-03-26T11:48:10.945Z,1.50
2023-03-26T11:51:20.781Z,1.40
2023-03-26T11:54:23.005Z,1.40
2023-03-26T11:57:33.460Z,1.25
2023-03-26T12:00:36.179Z,1.50
2023-03-26T12:03:40.810Z,1.48
2023-03-26T12:06:52.813Z,1.20
2023-03-26T12:09:58.214Z,1.27
2023-03-26T12:13:30.575Z,1.20
2023-03-26T12:16:32.796Z,1.55
2023-03-26T12:19:39.650Z,0.93
2023-03-26T12:22:47.879Z,0.90
2023-03-26T12:26:09.846Z,1.20
2023-03-26T12:29:15.119Z,1.10
2023-03-26T12:32:17.268Z,0.80
2023-03-26T12:35:26.882Z,0.90
2023-03-26T12:38:35.971Z,1.00
2023-03-26T12:43:40.206Z,1.13
2023-03-26T12:45:16.906Z,1.48
2023-03-26T12:48:19.740Z,0.80
2023-03-26T12:51:40.608Z,1.00
2023-03-26T12:54:51.194Z,1.00
2023-03-26T12:58:13.321Z,0.68
2023-03-26T13:01:26.822Z,0.70
2023-03-26T13:04:55.011Z,0.38
2023-03-26T13:08:26.360Z,0.70
2023-03-26T13:11:38.306Z,0.60
2023-03-26T13:15:03.560Z,0.52
2023-03-26T13:18:22.471Z,0.70
2023-03-26T13:21:37.190Z,0.40
2023-03-26T13:24:54.474Z,0.40
2023-03-26T13:28:10.975Z,0.80
2023-03-26T13:31:19.397Z,0.88
2023-03-26T13:34:33.884Z,0.80
2023-03-26T13:37:42.746Z,0.82
2023-03-26T13:40:57.844Z,0.50
2023-03-26T13:44:08.076Z,0.75
2023-03-26T13:47:16.817Z,0.80
2023-03-26T13:50:25.515Z,0.80
2023-03-26T13:53:35.426Z,1.20
2023-03-26T13:56:43.356Z,0.60
2023-03-26T13:59:51.302Z,0.98
2023-03-26T14:02:58.508Z,0.60
2023-03-26T14:06:08.817Z,0.60
2023-03-26T14:09:17.899Z,0.93
2023-03-26T14:12:31.857Z,0.70
2023-03-26T14:15:41.549Z,0.80
2023-03-26T14:18:49.586Z,0.93
2023-03-26T14:22:11.231Z,0.43
2023-03-26T14:25:32.830Z,0.68
2023-03-26T14:29:10.307Z,1.38
2023-03-26T14:32:24.901Z,0.80
2023-03-26T14:35:37.094Z,0.60
2023-03-26T14:39:05.454Z,0.65
2023-03-26T14:42:18.194Z,0.68
2023-03-26T14:46:00.079Z,0.70
2023-03-26T14:49:46.592Z,0.70
2023-03-26T14:52:51.602Z,0.52
2023-03-26T14:56:34.902Z,0.85
2023-03-26T15:00:07.590Z,0.50
2023-03-26T15:03:54.824Z,0.85
2023-03-26T15:07:39.054Z,0.50
2023-03-26T15:11:17.973Z,0.60
2023-03-26T15:14:56.266Z,0.73
2023-03-26T15:18:36.402Z,0.50
2023-03-26T15:22:17.276Z,0.73
2023-03-26T15:25:42.040Z,0.75
2023-03-26T15:29:05.904Z,0.50
2023-03-26T15:32:35.161Z,0.55
2023-03-26T15:36:01.387Z,0.68
2023-03-26T15:40:31.407Z,0.77
2023-03-26T15:44:24.390Z,0.60
2023-03-26T15:48:12.071Z,0.70
2023-03-26T15:51:31.635Z,0.50
2023-03-26T15:55:00.886Z,0.85
2023-03-26T15:58:13.699Z,0.47
2023-03-26T16:01:38.876Z,0.80
2023-03-26T16:04:50.360Z,0.80
2023-03-26T16:08:07.332Z,0.85
2023-03-26T16:11:12.861Z,0.88
2023-03-26T16:14:21.409Z,1.10
2023-03-26T16:17:25.384Z,0.90
2023-03-26T16:20:33.721Z,1.17
2023-03-26T16:23:54.207Z,1.05
2023-03-26T16:27:23.944Z,1.00
2023-03-26T16:30:30.399Z,1.17
2023-03-26T16:33:37.951Z,1.55
2023-03-26T16:36:44.351Z,1.45
2023-03-26T16:39:47.710Z,0.93
2023-03-26T16:42:55.567Z,1.17
2023-03-26T16:46:08.436Z,1.95
2023-03-26T16:49:22.681Z,0.90
2023-03-26T16:52:46.764Z,1.13
2023-03-26T16:55:57.203Z,0.95
2023-03-26T16:59:08.036Z,1.40
2023-03-26T17:02:21.871Z,1.50
2023-03-26T17:05:35.489Z,1.27
2023-03-26T17:08:49.800Z,2.08
2023-03-26T17:12:03.862Z,1.33
2023-03-26T17:15:27.019Z,1.40
2023-03-26T17:18:44.183Z,2.10
2023-03-26T17:21:56.734Z,1.65
2023-03-26T17:25:11.600Z,1.75
2023-03-26T17:28:28.270Z,1.40
2023-03-26T17:31:41.848Z,1.48
2023-03-26T17:34:59.878Z,1.80
2023-03-26T17:38:03.491Z,1.88
2023-03-26T17:41:15.878Z,1.70
2023-03-26T17:44:46.706Z,1.52
2023-03-26T17:47:54.514Z,1.60
2023-03-26T17:51:03.289Z,2.13
2023-03-26T17:54:15.315Z,1.77
2023-03-26T17:57:25.927Z,2.30
2023-03-26T18:00:32.955Z,1.60
2023-03-26T18:03:40.838Z,1.77
2023-03-26T18:07:05.307Z,1.50
2023-03-26T18:10:25.204Z,1.80
2023-03-26T18:14:02.947Z,2.50
2023-03-26T18:17:18.538Z,1.73
2023-03-26T18:20:27.177Z,2.22
2023-03-26T18:23:37.293Z,2.45
2023-03-26T18:26:44.073Z,1.35
2023-03-26T18:30:03.048Z,1.77
2023-03-26T18:33:14.263Z,2.13
2023-03-26T18:36:20.267Z,2.45
2023-03-26T18:39:24.853Z,1.80
2023-03-26T18:42:31.345Z,2.28
2023-03-26T18:45:43.694Z,1.77
2023-03-26T18:48:48.482Z,2.00
2023-03-26T18:51:57.500Z,2.35
2023-03-26T18:55:03.291Z,2.50
2023-03-26T18:58:22.468Z,2.75
2023-03-26T19:01:34.252Z,2.83
2023-03-26T19:04:38.716Z,2.85
2023-03-26T19:07:46.596Z,2.70
2023-03-26T19:10:50.943Z,2.42
2023-03-26T19:14:04.140Z,2.45
2023-03-26T19:17:09.544Z,2.70
2023-03-26T19:20:18.950Z,2.65
2023-03-26T19:23:27.229Z,2.47
2023-03-26T19:26:30.942Z,3.05
2023-03-26T19:29:36.348Z,3.60
2023-03-26T19:32:41.217Z,3.35
2023-03-26T19:35:47.339Z,2.65
2023-03-26T19:38:59.825Z,3.05
2023-03-26T19:42:05.252Z,3.40
2023-03-26T19:45:19.167Z,3.10
2023-03-26T19:48:45.661Z,2.63
2023-03-26T19:52:12.165Z,3.65
2023-03-26T19:55:23.155Z,3.05
2023-03-26T19:58:28.303Z,2.97
2023-03-26T20:01:32.343Z,3.05
2023-03-26T20:04:37.259Z,2.50
2023-03-26T20:07:40.383Z,2.47
2023-03-26T20:10:43.954Z,2.67
2023-03-26T20:13:47.311Z,3.22
2023-03-26T20:16:50.301Z,3.13
2023-03-26T20:19:54.479Z,3.08
2023-03-26T20:22:57.465Z,3.88
2023-03-26T20:26:06.774Z,3.15
2023-03-26T20:29:10.590Z,3.60
2023-03-26T20:32:19.983Z,3.42
2023-03-26T20:35:36.231Z,3.40
2023-03-26T20:38:40.384Z,4.00
2023-03-26T20:41:46.463Z,3.58
2023-03-26T20:44:51.636Z,3.67
2023-03-26T20:48:17.144Z,3.63
2023-03-26T20:51:21.486Z,3.15
2023-03-26T20:54:25.818Z,3.50
2023-03-26T20:57:28.080Z,3.47
2023-03-26T21:00:32.808Z,3.38
2023-03-26T21:03:34.845Z,2.92
2023-03-26T21:06:38.328Z,2.95
2023-03-26T21:09:41.200Z,3.10
2023-03-26T21:12:47.883Z,3.08
2023-03-26T21:15:50.443Z,2.67
2023-03-26T21:18:52.960Z,2.35
2023-03-26T21:22:03.553Z,2.60
2023-03-26T21:25:17.536Z,1.92
2023-03-26T21:28:39.815Z,2.00
2023-03-26T21:31:44.589Z,1.30
2023-03-26T21:34:57.519Z,1.50
2023-03-26T21:38:04.596Z,1.30
2023-03-26T21:41:07.790Z,1.50
2023-03-26T21:44:09.944Z,1.30
2023-03-26T21:47:12.673Z,1.70
2023-03-26T21:50:17.620Z,1.40
2023-03-26T21:53:22.645Z,1.80
2023-03-26T21:56:40.786Z,1.35
2023-03-26T21:59:49.870Z,1.35
2023-03-26T22:03:04.005Z,1.17
2023-03-26T22:06:13.601Z,1.50
2023-03-26T22:09:26.295Z,1.15
2023-03-26T22:12:28.678Z,1.35
2023-03-26T22:15:31.295Z,1.60
2023-03-26T22:18:33.665Z,1.55
2023-03-26T22:21:35.967Z,1.40
2023-03-26T22:24:39.197Z,1.40
2023-03-26T22:27:44.163Z,1.23
2023-03-26T22:30:46.819Z,1.30
2023-03-26T22:33:49.198Z,1.40
2023-03-26T22:36:52.512Z,1.50
2023-03-26T22:39:56.186Z,1.27
2023-03-26T22:42:58.067Z,1.30
2023-03-26T22:45:59.953Z,1.27
2023-03-26T22:49:01.922Z,1.27
2023-03-26T22:52:04.113Z,0.90
2023-03-26T22:55:09.000Z,1.15
2023-03-26T22:58:10.833Z,1.17
2023-03-26T23:01:16.870Z,0.80
2023-03-26T23:04:31.540Z,1.00
2023-03-26T23:07:34.172Z,0.70
2023-03-26T23:10:37.446Z,0.80
2023-03-26T23:13:39.831Z,1.00
2023-03-26T23:16:42.403Z,1.05
2023-03-26T23:19:44.599Z,1.00
2023-03-26T23:22:46.518Z,1.35
2023-03-26T23:25:50.129Z,1.00
2023-03-26T23:28:52.010Z,1.00
2023-03-26T23:31:54.687Z,1.08
2023-03-26T23:34:56.666Z,1.25
2023-03-26T23:38:02.203Z,1.00
2023-03-26T23:41:06.871Z,1.42
2023-03-26T23:44:13.652Z,1.20
2023-03-26T23:47:16.777Z,1.17
2023-03-26T23:50:18.764Z,1.40
2023-03-26T23:53:22.606Z,1.17
2023-03-26T23:56:27.828Z,1.10
2023-03-26T23:59:29.749Z,1.20
